Main page
METAR-TAF:

METAR-TAF

Airports :

Dübendorf, Switzerland

Dübendorf Air Base

latitude: 47-23-55N, longitude: 8-38-53E, elevation: 448 m

Current weather observation

The report was made 9 hours and 36 minutes ago, at 14:50 UTC
Wind 9 kt from the East with gusts up to 21 kt, varying between Northeast and East/Southeast
Temperature -1°C
Humidity 74%
Pressure 1011 hPa
Visibility: 8000 m
Scattered clouds at a height of 2000 ft
Broken clouds at a height of 3600 ft
Overcast at a height of 4200 ft
light snow

METAR: LSMD 221450Z 09009G21KT 040V120 8000 -SN SCT020 BKN036 OVC042 M01/M05 Q1011 RMK BLU

Time: 01:26 (00:26 UTC)


TAF: missing

Weather observations and forecasts of more than 4000 airports (METAR and TAF reports).

The available stations are represented by yellow and red dots on the map.

Hover mouse over dot to see the name of the station.

Then click to see weather observations and forecasts.

To change the map : click on the green buttons with a black cross to zoom in, on the green button with a dash to zoom out, or on the green arrows for adjacent maps.


METAR-TAF: